Time;durP1;ratioP1;P1;durP2;ratioP2;P2;SDS_P1;SDS_P2;PMS_P1;PMS_P2;Temp;Humidity;BMP_temperature;BMP_pressure;BME280_temperature;BME280_humidity;BME280_pressure;Samples;Min_cycle;Max_cycle;Signal;HPM_P1;HPM_P2
2021/05/12 00:01:42;;;;;;;2.75;2.00;;;13.20;57.60;;;;;;5138078;27;20039;-41
2021/05/12 00:04:07;;;;;;;2.05;1.85;;;13.10;57.70;;;;;;5138322;27;20076;-41
2021/05/12 00:06:33;;;;;;;6.20;2.03;;;13.10;57.70;;;;;;5138116;27;20027;-41
2021/05/12 00:08:58;;;;;;;5.93;2.22;;;13.10;57.70;;;;;;5137978;27;20027;-41
2021/05/12 00:11:24;;;;;;;3.58;2.42;;;13.00;57.70;;;;;;5137745;27;20156;-41
2021/05/12 00:13:51;;;;;;;2.17;1.98;;;13.00;57.70;;;;;;5137841;27;20368;-41
2021/05/12 00:16:17;;;;;;;7.38;2.03;;;13.00;57.70;;;;;;5137335;27;20430;-41
2021/05/12 00:18:45;;;;;;;3.63;1.88;;;12.90;57.80;;;;;;5137988;27;20065;-41
2021/05/12 00:21:15;;;;;;;2.97;2.28;;;12.90;58.00;;;;;;5137843;27;20414;-40
2021/05/12 00:23:50;;;;;;;3.70;2.10;;;12.90;58.30;;;;;;5138004;27;20372;-43
2021/05/12 00:26:16;;;;;;;1.95;1.60;;;12.80;58.50;;;;;;5137664;27;20368;-40
2021/05/12 00:28:41;;;;;;;3.17;2.10;;;12.70;58.50;;;;;;5137668;27;20039;-41
2021/05/12 00:31:07;;;;;;;2.88;1.80;;;12.80;58.80;;;;;;5137246;27;20043;-43
2021/05/12 00:33:33;;;;;;;2.10;1.67;;;12.70;58.90;;;;;;5137861;27;20314;-41
2021/05/12 00:35:58;;;;;;;2.83;1.90;;;12.60;58.90;;;;;;5137484;27;20031;-40
2021/05/12 00:38:24;;;;;;;4.30;1.98;;;12.60;59.20;;;;;;5137271;27;20485;-41
2021/05/12 00:40:50;;;;;;;4.28;1.98;;;12.60;59.50;;;;;;5137488;27;20038;-41
2021/05/12 00:43:15;;;;;;;4.40;1.88;;;12.60;59.60;;;;;;5137440;27;20422;-41
2021/05/12 00:45:41;;;;;;;5.85;2.20;;;12.60;59.70;;;;;;5137313;27;20420;-41
2021/05/12 00:48:07;;;;;;;2.45;2.10;;;12.50;59.70;;;;;;5137366;27;20386;-40
2021/05/12 00:50:33;;;;;;;2.10;1.77;;;12.50;59.80;;;;;;5137405;27;20034;-41
2021/05/12 00:53:00;;;;;;;3.92;1.85;;;12.50;59.90;;;;;;5137275;27;20034;-42
2021/05/12 00:55:26;;;;;;;2.88;2.03;;;12.40;60.00;;;;;;5137153;27;20031;-40
2021/05/12 00:57:52;;;;;;;2.20;2.00;;;12.40;60.10;;;;;;5137212;27;20039;-41
2021/05/12 01:00:22;;;;;;;2.50;1.50;;;12.40;60.30;;;;;;5137074;27;20096;-41
2021/05/12 01:02:47;;;;;;;1.70;1.60;;;12.30;60.30;;;;;;5137251;27;20031;-41
2021/05/12 01:05:40;;;;;;;1.75;1.65;;;12.30;60.40;;;;;;5137063;27;20031;-40
2021/05/12 01:08:06;;;;;;;2.13;1.50;;;12.30;60.50;;;;;;5137185;27;20098;-41
2021/05/12 01:10:33;;;;;;;2.00;1.80;;;12.30;60.40;;;;;;5136984;27;20034;-40
2021/05/12 01:12:59;;;;;;;2.20;1.83;;;12.30;60.60;;;;;;5137092;27;20031;-40
2021/05/12 01:15:26;;;;;;;3.13;1.70;;;12.20;60.60;;;;;;5136621;27;20027;-42
2021/05/12 01:17:52;;;;;;;1.80;1.70;;;12.20;60.60;;;;;;5136994;27;20318;-41
2021/05/12 01:20:18;;;;;;;2.42;1.75;;;12.20;60.70;;;;;;5136678;27;20035;-41
2021/05/12 01:22:45;;;;;;;2.03;1.70;;;12.20;60.70;;;;;;5136649;27;20371;-41
2021/05/12 01:25:11;;;;;;;2.45;1.45;;;12.10;61.00;;;;;;5136576;27;20027;-41
2021/05/12 01:27:37;;;;;;;1.92;1.77;;;12.10;61.10;;;;;;5136640;27;20115;-41
2021/05/12 01:30:05;;;;;;;1.98;1.50;;;12.10;61.40;;;;;;5136370;28;20031;-41
2021/05/12 01:32:35;;;;;;;3.88;1.55;;;12.10;61.40;;;;;;5136460;28;20031;-41
2021/05/12 01:35:09;;;;;;;1.77;1.65;;;12.10;61.40;;;;;;5136530;28;20334;-41
2021/05/12 01:37:35;;;;;;;2.60;1.30;;;12.10;61.40;;;;;;5135725;28;20063;-41
2021/05/12 01:40:07;;;;;;;1.83;1.55;;;12.00;61.40;;;;;;5135639;28;20050;-41
2021/05/12 01:42:32;;;;;;;3.00;1.40;;;12.00;61.70;;;;;;5136250;27;20035;-41
2021/05/12 01:45:24;;;;;;;2.15;1.52;;;12.00;61.70;;;;;;5139390;28;20069;-41
2021/05/12 01:47:50;;;;;;;2.45;1.85;;;12.00;61.70;;;;;;5134490;28;20334;-42
2021/05/12 01:50:15;;;;;;;1.50;1.40;;;12.00;61.90;;;;;;5139139;28;20027;-41
2021/05/12 01:52:44;;;;;;;4.82;1.70;;;11.90;61.90;;;;;;5139547;28;20035;-42
2021/05/12 01:55:12;;;;;;;1.40;1.30;;;11.90;62.00;;;;;;5139077;28;20035;-43
2021/05/12 01:57:44;;;;;;;2.22;2.00;;;11.90;62.00;;;;;;5139416;28;20132;-41
2021/05/12 02:00:20;;;;;;;2.63;1.90;;;11.90;62.20;;;;;;5138842;28;20424;-41
2021/05/12 02:02:46;;;;;;;1.85;1.40;;;11.80;62.20;;;;;;5138995;28;20434;-42
2021/05/12 02:05:12;;;;;;;1.92;1.30;;;11.80;62.30;;;;;;5139242;28;20027;-40
2021/05/12 02:07:37;;;;;;;1.50;1.40;;;11.80;62.30;;;;;;5138968;28;20088;-40
2021/05/12 02:10:04;;;;;;;7.60;1.83;;;11.80;62.20;;;;;;5139107;28;20119;-40
2021/05/12 02:12:29;;;;;;;3.70;1.50;;;11.70;62.10;;;;;;5138915;28;20054;-43
2021/05/12 02:14:55;;;;;;;1.65;1.50;;;11.80;62.40;;;;;;5138851;28;20399;-41
2021/05/12 02:17:21;;;;;;;2.45;1.40;;;11.70;62.30;;;;;;5139052;28;20448;-40
2021/05/12 02:19:47;;;;;;;2.10;1.60;;;11.70;62.40;;;;;;5139116;28;20027;-41
2021/05/12 02:22:13;;;;;;;1.33;1.23;;;11.70;62.60;;;;;;5138796;28;20114;-42
2021/05/12 02:24:39;;;;;;;2.05;1.40;;;11.60;63.20;;;;;;5138745;28;20106;-40
2021/05/12 02:27:05;;;;;;;1.00;1.00;;;11.60;62.90;;;;;;5138331;28;20027;-41
2021/05/12 02:29:30;;;;;;;1.25;1.15;;;11.60;63.10;;;;;;5138697;28;20068;-41
2021/05/12 02:31:56;;;;;;;1.40;1.30;;;11.60;63.40;;;;;;5138382;28;20019;-42
2021/05/12 02:34:22;;;;;;;3.83;1.25;;;11.60;63.70;;;;;;5138732;28;20098;-41
2021/05/12 02:36:48;;;;;;;1.98;1.20;;;11.60;63.80;;;;;;5114599;27;670274;-40
2021/05/12 02:39:13;;;;;;;1.20;1.02;;;11.60;63.90;;;;;;5139808;27;20136;-41
2021/05/12 02:41:39;;;;;;;1.02;0.88;;;11.60;64.10;;;;;;5139334;27;20031;-42
2021/05/12 02:44:05;;;;;;;0.98;0.93;;;11.60;64.10;;;;;;5139992;27;20110;-42
2021/05/12 02:46:30;;;;;;;1.17;1.08;;;11.60;64.20;;;;;;5139738;27;20038;-41
2021/05/12 02:48:56;;;;;;;0.90;0.80;;;11.60;64.30;;;;;;5139560;27;20038;-40
2021/05/12 02:51:22;;;;;;;1.75;1.00;;;11.60;64.10;;;;;;5139684;27;20114;-40
2021/05/12 02:53:47;;;;;;;0.77;0.70;;;11.60;64.00;;;;;;5139317;27;20058;-40
2021/05/12 02:56:13;;;;;;;1.05;0.70;;;11.70;64.00;;;;;;5139446;27;20030;-40
2021/05/12 02:58:39;;;;;;;2.28;0.82;;;11.70;63.90;;;;;;5139444;27;20326;-41
2021/05/12 03:01:04;;;;;;;0.85;0.52;;;11.70;63.80;;;;;;5139292;27;20027;-40
2021/05/12 03:03:30;;;;;;;1.02;0.77;;;11.70;63.80;;;;;;5139560;27;20035;-40
2021/05/12 03:05:56;;;;;;;0.80;0.80;;;11.70;63.80;;;;;;5139203;27;20031;-41
2021/05/12 03:08:21;;;;;;;1.35;0.90;;;11.70;63.90;;;;;;5139128;27;20049;-40
2021/05/12 03:10:48;;;;;;;1.33;1.00;;;11.70;63.90;;;;;;5139212;27;20027;-40
2021/05/12 03:13:14;;;;;;;1.75;0.80;;;11.80;64.30;;;;;;5139346;27;20342;-41
2021/05/12 03:15:39;;;;;;;0.98;0.98;;;11.70;63.90;;;;;;5138504;27;20118;-41
2021/05/12 03:18:07;;;;;;;2.15;0.60;;;11.80;64.20;;;;;;5139288;27;20035;-41
2021/05/12 03:20:33;;;;;;;1.35;0.70;;;11.80;64.30;;;;;;5139018;27;20469;-41
2021/05/12 03:23:00;;;;;;;1.42;0.90;;;11.70;64.30;;;;;;5139002;27;20049;-41
2021/05/12 03:25:26;;;;;;;2.95;0.98;;;11.80;64.40;;;;;;5138864;27;20110;-41
2021/05/12 03:27:53;;;;;;;2.03;1.20;;;11.70;64.30;;;;;;5139038;27;20084;-42
2021/05/12 03:30:24;;;;;;;0.50;0.50;;;11.70;64.40;;;;;;5138865;27;20334;-41
2021/05/12 03:32:49;;;;;;;;;;;11.70;64.50;;;;;;5139186;27;20033;-40
2021/05/12 03:35:15;;;;;;;2.03;0.75;;;11.70;64.20;;;;;;5138628;27;19910;-41
2021/05/12 03:37:41;;;;;;;1.75;1.20;;;11.70;64.30;;;;;;5138416;27;20120;-40
2021/05/12 03:40:08;;;;;;;2.63;1.15;;;11.70;64.40;;;;;;5138665;27;20065;-40
2021/05/12 03:42:34;;;;;;;2.03;1.08;;;11.70;64.50;;;;;;5138480;27;20430;-40
2021/05/12 03:45:01;;;;;;;1.40;1.25;;;11.70;64.60;;;;;;5138166;27;20027;-41
2021/05/12 03:47:26;;;;;;;1.40;1.30;;;11.70;64.70;;;;;;5138314;27;20051;-41
2021/05/12 03:49:52;;;;;;;1.05;0.80;;;11.70;64.80;;;;;;5138279;27;20027;-41
2021/05/12 03:52:18;;;;;;;1.48;0.90;;;11.70;64.90;;;;;;5138028;27;20437;-40
2021/05/12 03:54:44;;;;;;;1.00;0.90;;;11.70;65.00;;;;;;5138304;27;20024;-41
2021/05/12 03:57:09;;;;;;;3.08;1.50;;;11.80;65.10;;;;;;5137926;27;20140;-41
2021/05/12 03:59:35;;;;;;;1.10;0.90;;;11.80;65.10;;;;;;5138191;27;20073;-40
2021/05/12 04:02:00;;;;;;;8.10;1.63;;;11.80;64.80;;;;;;5137832;27;20114;-41
2021/05/12 04:04:26;;;;;;;2.13;1.30;;;11.90;64.80;;;;;;5137921;27;20373;-41
2021/05/12 04:06:52;;;;;;;5.47;1.27;;;11.90;64.70;;;;;;5137375;27;20137;-41
2021/05/12 04:09:17;;;;;;;1.58;1.00;;;11.90;64.70;;;;;;5138155;27;20023;-40
2021/05/12 04:11:46;;;;;;;1.55;0.95;;;11.90;64.70;;;;;;5137536;27;20026;-41
2021/05/12 04:14:12;;;;;;;5.85;1.15;;;11.90;64.80;;;;;;5138037;27;20125;-42
2021/05/12 04:16:37;;;;;;;1.33;1.10;;;12.00;64.80;;;;;;5137940;27;20027;-40
2021/05/12 04:19:03;;;;;;;3.40;1.33;;;11.90;65.00;;;;;;5137803;27;20372;-40
2021/05/12 04:21:30;;;;;;;2.28;1.25;;;11.90;65.10;;;;;;5137881;27;20310;-40
2021/05/12 04:23:56;;;;;;;2.95;1.20;;;12.00;65.30;;;;;;5137353;27;20084;-41
2021/05/12 04:26:21;;;;;;;3.40;1.73;;;12.00;65.20;;;;;;5137406;27;20035;-41
2021/05/12 04:28:47;;;;;;;1.42;1.00;;;12.00;65.20;;;;;;5137807;27;20058;-41
2021/05/12 04:31:13;;;;;;;1.45;1.20;;;12.10;65.20;;;;;;5137710;27;20019;-41
2021/05/12 04:33:39;;;;;;;7.97;1.60;;;12.10;65.30;;;;;;5137407;27;20027;-41
2021/05/12 04:36:06;;;;;;;3.15;1.50;;;12.10;65.30;;;;;;5136875;27;20027;-41
2021/05/12 04:38:31;;;;;;;5.15;1.40;;;12.20;65.30;;;;;;5137226;27;20350;-40
2021/05/12 04:40:58;;;;;;;57.53;4.90;;;12.20;65.50;;;;;;5137298;27;20038;-41
2021/05/12 04:43:27;;;;;;;7.15;2.50;;;12.30;65.70;;;;;;5137282;27;20430;-40
2021/05/12 04:45:53;;;;;;;3.97;1.70;;;12.30;65.70;;;;;;5136747;27;20062;-40
2021/05/12 04:48:19;;;;;;;3.00;1.50;;;12.30;65.80;;;;;;5137390;27;20103;-40
2021/05/12 04:50:45;;;;;;;2.92;1.33;;;12.40;65.80;;;;;;5136759;27;20185;-41
2021/05/12 04:53:10;;;;;;;2.33;1.50;;;12.50;65.80;;;;;;5137016;27;20029;-40
2021/05/12 04:55:36;;;;;;;3.55;1.38;;;12.60;65.60;;;;;;5136567;27;20110;-40
2021/05/12 04:58:02;;;;;;;2.13;1.17;;;12.70;65.60;;;;;;5137162;27;20072;-41
2021/05/12 05:00:28;;;;;;;2.00;1.50;;;12.80;65.50;;;;;;5136706;27;20381;-40
2021/05/12 05:02:55;;;;;;;14.82;1.92;;;12.80;65.30;;;;;;5136719;27;20038;-43
2021/05/12 05:05:21;;;;;;;5.05;1.30;;;12.90;65.00;;;;;;5136642;27;20104;-41
2021/05/12 05:07:47;;;;;;;2.95;1.50;;;12.90;64.90;;;;;;5137043;27;20084;-41
2021/05/12 05:10:14;;;;;;;2.20;1.17;;;13.00;64.70;;;;;;5136723;27;20102;-40
2021/05/12 05:12:40;;;;;;;5.38;1.80;;;13.10;64.70;;;;;;5136980;27;20322;-40
2021/05/12 05:15:07;;;;;;;2.35;1.33;;;13.20;64.60;;;;;;5136693;27;20023;-41
2021/05/12 05:17:33;;;;;;;4.93;3.42;;;13.20;64.20;;;;;;5136519;27;20283;-41
2021/05/12 05:19:59;;;;;;;11.85;2.65;;;13.30;63.90;;;;;;5136221;27;20019;-40
2021/05/12 05:22:27;;;;;;;5.22;2.58;;;13.40;63.60;;;;;;5136698;27;20042;-41
2021/05/12 05:24:53;;;;;;;3.15;2.40;;;13.50;63.40;;;;;;5136740;27;20030;-40
2021/05/12 05:27:19;;;;;;;5.18;1.63;;;13.60;63.20;;;;;;5133355;27;20114;-40
2021/05/12 05:29:45;;;;;;;1.88;1.40;;;13.70;63.10;;;;;;5136296;28;20106;-42
2021/05/12 05:32:12;;;;;;;3.08;1.02;;;13.80;62.80;;;;;;5136219;27;20034;-41
2021/05/12 05:34:38;;;;;;;3.67;1.40;;;13.80;62.40;;;;;;5136344;28;20102;-40
2021/05/12 05:37:04;;;;;;;3.47;1.52;;;13.90;61.80;;;;;;5131374;28;20031;-40
2021/05/12 05:39:35;;;;;;;4.18;1.67;;;14.00;61.60;;;;;;5135551;28;20019;-40
2021/05/12 05:42:11;;;;;;;1.17;1.00;;;14.00;61.40;;;;;;5134832;28;20027;-41
2021/05/12 05:44:38;;;;;;;1.45;0.80;;;14.10;61.20;;;;;;5136271;28;20020;-40
2021/05/12 05:47:04;;;;;;;4.30;1.33;;;14.20;60.80;;;;;;5135727;28;20039;-38
2021/05/12 05:49:31;;;;;;;4.25;1.20;;;14.20;60.80;;;;;;5136422;28;20019;-42
2021/05/12 05:51:57;;;;;;;1.10;1.00;;;14.20;60.60;;;;;;5135647;28;20391;-40
2021/05/12 05:54:23;;;;;;;3.42;1.08;;;14.20;60.30;;;;;;5135739;28;20402;-41
2021/05/12 05:56:49;;;;;;;2.17;1.50;;;14.20;60.20;;;;;;5135882;28;20031;-40
2021/05/12 05:59:15;;;;;;;4.57;1.00;;;14.30;60.20;;;;;;5136257;28;20076;-41
2021/05/12 06:01:41;;;;;;;4.95;1.23;;;14.30;60.00;;;;;;5135647;28;20031;-42
2021/05/12 06:04:07;;;;;;;2.13;1.00;;;14.30;59.80;;;;;;5136454;28;20021;-41
2021/05/12 06:06:33;;;;;;;25.83;2.42;;;14.40;59.50;;;;;;5135917;28;20347;-41
2021/05/12 06:08:59;;;;;;;3.20;0.90;;;14.40;59.40;;;;;;5136460;28;20031;-41
2021/05/12 06:11:25;;;;;;;4.07;2.30;;;14.50;59.20;;;;;;5136270;28;20019;-41
2021/05/12 06:13:51;;;;;;;1.30;1.13;;;14.60;58.90;;;;;;5136224;28;20437;-42
2021/05/12 06:16:18;;;;;;;3.67;2.50;;;14.60;58.70;;;;;;5135737;28;20023;-42
2021/05/12 06:18:44;;;;;;;9.48;1.27;;;14.70;59.30;;;;;;5135793;28;20074;-42
2021/05/12 06:21:11;;;;;;;4.32;1.83;;;14.80;58.40;;;;;;5135338;28;20027;-40
2021/05/12 06:23:39;;;;;;;7.32;4.22;;;14.90;58.30;;;;;;5135745;28;20322;-41
2021/05/12 06:26:13;;;;;;;3.95;1.95;;;15.00;58.20;;;;;;5135403;28;20031;-41
2021/05/12 06:28:39;;;;;;;3.88;2.35;;;15.10;58.00;;;;;;5131462;27;20032;-41
2021/05/12 06:31:05;;;;;;;6.97;4.38;;;15.20;57.70;;;;;;5139123;27;20035;-41
2021/05/12 06:33:31;;;;;;;6.43;2.58;;;15.20;57.20;;;;;;5139133;27;20189;-40
2021/05/12 06:35:56;;;;;;;2.70;1.50;;;15.20;57.00;;;;;;5139136;27;20027;-41
2021/05/12 06:38:23;;;;;;;1.08;0.80;;;15.30;57.10;;;;;;5138797;27;20445;-41
2021/05/12 06:40:49;;;;;;;2.63;1.70;;;15.20;56.70;;;;;;5138086;27;20053;-40
2021/05/12 06:43:15;;;;;;;7.50;4.07;;;15.20;56.40;;;;;;5137641;27;20110;-41
2021/05/12 06:45:40;;;;;;;5.00;2.30;;;15.10;56.30;;;;;;5138978;27;20027;-41
2021/05/12 06:48:08;;;;;;;3.28;2.55;;;15.10;56.40;;;;;;5138618;27;20034;-41
2021/05/12 06:50:34;;;;;;;5.78;2.20;;;15.10;56.60;;;;;;5138520;27;20453;-40
2021/05/12 06:52:59;;;;;;;1.67;1.10;;;15.00;56.30;;;;;;5138683;27;20051;-40
2021/05/12 06:55:26;;;;;;;3.42;1.10;;;15.00;56.40;;;;;;5138757;27;20470;-40
2021/05/12 06:57:52;;;;;;;0.75;0.75;;;14.90;56.40;;;;;;5138715;27;20031;-40
2021/05/12 07:00:19;;;;;;;3.75;1.45;;;14.80;56.30;;;;;;5138689;27;20031;-40
2021/05/12 07:02:45;;;;;;;5.18;1.52;;;14.80;56.40;;;;;;5138558;27;20031;-41
2021/05/12 07:05:15;;;;;;;2.90;1.38;;;14.80;56.80;;;;;;5138797;27;20027;-40
2021/05/12 07:07:42;;;;;;;3.40;0.98;;;14.80;56.80;;;;;;5138379;27;20092;-41
2021/05/12 07:10:09;;;;;;;2.05;0.88;;;14.80;56.70;;;;;;5138252;27;20031;-40
2021/05/12 07:12:35;;;;;;;3.13;1.77;;;14.80;56.40;;;;;;5137850;27;20088;-41
2021/05/12 07:15:02;;;;;;;7.50;4.00;;;14.80;56.30;;;;;;5138185;27;20431;-40
2021/05/12 07:17:28;;;;;;;3.40;2.30;;;14.90;56.40;;;;;;5137964;27;20019;-41
2021/05/12 07:19:54;;;;;;;2.92;2.17;;;14.90;56.50;;;;;;5138293;27;20027;-40
2021/05/12 07:22:20;;;;;;;23.63;12.52;;;15.00;56.60;;;;;;5134608;27;20357;-40
2021/05/12 07:24:46;;;;;;;17.25;8.05;;;15.10;56.50;;;;;;5137829;27;20279;-42
2021/05/12 07:27:11;;;;;;;14.38;8.88;;;15.20;56.50;;;;;;5137503;27;20025;-41
2021/05/12 07:29:37;;;;;;;5.32;3.60;;;15.20;56.40;;;;;;5137957;27;20294;-41
2021/05/12 07:32:03;;;;;;;11.70;8.30;;;15.20;56.00;;;;;;5135682;27;20042;-45
2021/05/12 07:34:29;;;;;;;8.63;5.88;;;15.30;56.10;;;;;;5137892;27;20062;-42
2021/05/12 07:36:54;;;;;;;9.52;5.70;;;15.30;55.90;;;;;;5135744;27;20083;-43
2021/05/12 07:39:20;;;;;;;7.82;5.65;;;15.30;55.40;;;;;;5137691;27;20118;-44
2021/05/12 07:41:47;;;;;;;14.73;7.18;;;15.30;55.40;;;;;;5136507;27;20027;-40
2021/05/12 07:44:13;;;;;;;12.02;6.65;;;15.30;55.40;;;;;;5138271;27;20111;-41
2021/05/12 07:46:39;;;;;;;5.60;2.90;;;15.30;55.60;;;;;;5137690;27;20369;-41
2021/05/12 07:49:04;;;;;;;5.47;2.60;;;15.30;55.70;;;;;;5138000;27;20046;-43
2021/05/12 07:51:30;;;;;;;7.45;2.70;;;15.30;55.60;;;;;;5137900;27;20395;-41
2021/05/12 07:53:56;;;;;;;2.25;1.90;;;15.40;55.60;;;;;;5137596;27;20360;-43
2021/05/12 07:56:21;;;;;;;2.08;1.88;;;15.40;55.50;;;;;;5137851;27;20027;-40
2021/05/12 07:58:47;;;;;;;6.68;3.30;;;15.50;55.50;;;;;;5137352;27;20034;-41
2021/05/12 08:01:20;;;;;;;5.63;2.55;;;15.60;55.70;;;;;;5137825;27;20155;-41
2021/05/12 08:03:45;;;;;;;8.13;3.10;;;15.70;55.80;;;;;;5137638;27;20326;-41
2021/05/12 08:06:11;;;;;;;5.30;3.00;;;15.70;55.40;;;;;;5137686;27;20035;-42
2021/05/12 08:08:38;;;;;;;9.75;3.50;;;15.80;55.00;;;;;;5137387;27;20027;-41
2021/05/12 08:11:04;;;;;;;3.67;2.85;;;15.90;54.80;;;;;;5137744;27;20287;-41
2021/05/12 08:13:30;;;;;;;19.25;14.70;;;15.90;54.70;;;;;;5135558;27;20043;-41
2021/05/12 08:15:57;;;;;;;6.43;3.90;;;16.00;54.70;;;;;;5137248;27;20027;-42
2021/05/12 08:18:23;;;;;;;6.15;4.43;;;16.10;54.50;;;;;;5137449;27;20038;-41
2021/05/12 08:20:49;;;;;;;8.32;3.53;;;16.20;54.00;;;;;;5137103;27;20390;-41
2021/05/12 08:23:14;;;;;;;5.43;3.60;;;16.30;53.80;;;;;;5137303;27;20031;-41
2021/05/12 08:25:44;;;;;;;2.72;2.30;;;16.30;53.50;;;;;;5137265;27;20362;-42
2021/05/12 08:28:10;;;;;;;14.40;8.20;;;16.40;54.00;;;;;;5136540;27;20119;-42
2021/05/12 08:30:37;;;;;;;7.47;4.95;;;16.40;53.30;;;;;;5137063;27;20106;-41
2021/05/12 08:33:03;;;;;;;4.80;3.40;;;16.50;53.20;;;;;;5136776;27;20035;-40
2021/05/12 08:35:29;;;;;;;7.57;4.72;;;16.50;53.30;;;;;;5136863;27;20023;-41
2021/05/12 08:37:55;;;;;;;14.50;6.35;;;16.50;52.90;;;;;;5136259;27;20047;-41
2021/05/12 08:40:22;;;;;;;5.03;4.05;;;16.60;52.60;;;;;;5136754;27;20031;-41
2021/05/12 08:42:50;;;;;;;7.32;5.50;;;16.60;52.50;;;;;;5136027;27;20038;-41
2021/05/12 08:45:17;;;;;;;28.35;12.70;;;16.60;52.50;;;;;;5136588;27;20300;-41
2021/05/12 08:47:45;;;;;;;13.32;7.63;;;16.70;52.90;;;;;;5136542;27;20110;-41
2021/05/12 08:50:11;;;;;;;4.85;2.88;;;16.70;52.90;;;;;;5136633;27;20030;-41
2021/05/12 08:52:38;;;;;;;5.30;2.70;;;16.70;53.10;;;;;;5136442;27;20375;-41
2021/05/12 08:55:05;;;;;;;6.90;2.40;;;16.70;52.60;;;;;;5136705;27;20429;-41
2021/05/12 08:57:30;;;;;;;3.17;2.30;;;16.80;52.10;;;;;;5136755;27;20334;-41
2021/05/12 08:59:56;;;;;;;5.00;2.78;;;16.80;52.20;;;;;;5136982;27;20110;-41
2021/05/12 09:02:22;;;;;;;4.65;2.47;;;16.90;51.60;;;;;;5136555;27;20042;-42
2021/05/12 09:04:48;;;;;;;5.00;2.70;;;16.90;51.80;;;;;;5136606;27;20031;-42
2021/05/12 09:07:14;;;;;;;5.20;2.83;;;17.00;51.30;;;;;;5136381;27;20118;-41
2021/05/12 09:09:40;;;;;;;6.50;3.65;;;17.10;50.70;;;;;;5136488;27;20367;-40
2021/05/12 09:12:06;;;;;;;6.00;3.00;;;17.20;50.20;;;;;;5136049;27;20043;-41
2021/05/12 09:14:34;;;;;;;5.50;3.67;;;17.20;49.50;;;;;;5136205;27;20429;-41
2021/05/12 09:17:00;;;;;;;28.40;9.75;;;17.30;49.70;;;;;;5135606;27;20075;-41
2021/05/12 09:19:27;;;;;;;6.97;3.47;;;17.40;49.50;;;;;;5136578;27;20015;-40
2021/05/12 09:22:06;;;;;;;9.40;3.25;;;17.40;49.80;;;;;;5135986;27;20046;-41
2021/05/12 09:24:37;;;;;;;18.38;3.80;;;17.50;49.90;;;;;;5136618;27;20019;-40
2021/05/12 09:27:10;;;;;;;9.68;5.40;;;17.60;49.90;;;;;;5135376;27;20030;-42
2021/05/12 09:29:42;;;;;;;5.18;3.38;;;17.70;49.80;;;;;;5135665;27;20019;-40
2021/05/12 09:32:07;;;;;;;6.85;2.55;;;17.80;49.70;;;;;;5132622;28;20027;-43
2021/05/12 09:34:54;;;;;;;10.20;4.50;;;17.80;50.10;;;;;;5136252;28;20314;-40
2021/05/12 09:37:28;;;;;;;3.28;2.22;;;17.90;50.50;;;;;;5135403;28;20049;-40
2021/05/12 09:39:55;;;;;;;5.38;3.45;;;17.90;50.60;;;;;;5136080;28;20403;-41
2021/05/12 09:42:22;;;;;;;4.93;2.22;;;17.90;50.80;;;;;;5135634;28;20042;-40
2021/05/12 09:45:07;;;;;;;9.60;5.25;;;18.00;50.60;;;;;;5136387;28;20019;-41
2021/05/12 09:47:32;;;;;;;2.53;2.08;;;18.00;49.80;;;;;;5135438;28;20027;-42
2021/05/12 09:49:58;;;;;;;1.50;1.40;;;18.10;49.50;;;;;;5136427;28;20076;-40
2021/05/12 09:52:30;;;;;;;3.45;2.60;;;18.10;48.60;;;;;;5135703;28;20023;-41
2021/05/12 09:55:06;;;;;;;5.05;2.75;;;18.10;48.10;;;;;;5135777;28;20452;-41
2021/05/12 09:57:32;;;;;;;5.95;1.40;;;18.20;48.50;;;;;;5136083;28;20118;-41
2021/05/12 09:59:58;;;;;;;6.18;1.77;;;18.30;47.20;;;;;;5117476;28;20070;-41
2021/05/12 10:02:23;;;;;;;2.10;1.70;;;18.30;46.60;;;;;;5135177;28;20383;-41
2021/05/12 10:04:50;;;;;;;2.22;1.33;;;18.30;46.60;;;;;;5138633;27;20034;-40
2021/05/12 10:07:24;;;;;;;1.67;1.40;;;18.30;46.70;;;;;;5138863;27;20062;-40
2021/05/12 10:09:51;;;;;;;1.13;0.98;;;18.30;47.50;;;;;;5140077;27;20054;-41
2021/05/12 10:12:22;;;;;;;8.98;4.20;;;18.30;47.00;;;;;;5139471;27;20295;-40
2021/05/12 10:14:52;;;;;;;3.85;2.35;;;18.30;46.90;;;;;;5139664;27;20034;-40
2021/05/12 10:17:19;;;;;;;5.80;1.77;;;18.40;46.70;;;;;;5138915;27;20028;-41
2021/05/12 10:19:47;;;;;;;20.58;6.72;;;18.50;46.70;;;;;;5139965;27;20027;-41
2021/05/12 10:22:14;;;;;;;7.03;3.35;;;18.60;47.30;;;;;;5139090;27;20315;-43
2021/05/12 10:24:41;;;;;;;3.05;2.58;;;18.60;47.80;;;;;;5139369;27;20023;-41
2021/05/12 10:27:26;;;;;;;2.78;1.90;;;18.60;48.20;;;;;;5138694;27;20033;-42
2021/05/12 10:29:54;;;;;;;2.70;1.65;;;18.60;48.10;;;;;;5139393;27;20060;-42
2021/05/12 10:32:29;;;;;;;3.90;1.75;;;18.60;48.20;;;;;;5138857;27;20023;-42
2021/05/12 10:35:08;;;;;;;3.30;1.60;;;18.60;48.00;;;;;;5139619;27;20035;-41
2021/05/12 10:37:39;;;;;;;1.85;1.60;;;18.70;47.40;;;;;;5138783;27;20053;-41
2021/05/12 10:40:14;;;;;;;9.57;2.80;;;18.60;47.20;;;;;;5139338;27;20394;-42
2021/05/12 10:42:50;;;;;;;1.98;1.38;;;18.60;47.50;;;;;;5138677;27;20039;-41
2021/05/12 10:45:20;;;;;;;2.13;1.90;;;18.60;47.40;;;;;;5139085;27;20042;-42
2021/05/12 10:47:46;;;;;;;2.70;2.00;;;18.70;47.40;;;;;;5137443;27;20029;-42
2021/05/12 10:50:11;;;;;;;4.82;2.15;;;18.70;47.30;;;;;;5139214;27;20031;-43
2021/05/12 10:52:37;;;;;;;2.10;1.90;;;18.60;47.20;;;;;;5138905;27;20028;-42
2021/05/12 10:55:03;;;;;;;4.20;2.03;;;18.60;46.70;;;;;;5139125;27;20356;-41
2021/05/12 10:57:51;;;;;;;2.03;1.92;;;18.50;47.00;;;;;;5138688;27;20031;-44
2021/05/12 11:00:19;;;;;;;2.13;1.85;;;18.60;47.20;;;;;;5139174;27;20401;-43
2021/05/12 11:02:51;;;;;;;4.40;2.75;;;18.70;47.30;;;;;;5138394;27;20110;-45
2021/05/12 11:05:18;;;;;;;1.95;1.63;;;18.80;47.00;;;;;;5138557;27;20031;-45
2021/05/12 11:08:13;;;;;;;1.73;1.63;;;18.90;47.00;;;;;;5138596;27;20060;-41
2021/05/12 11:10:57;;;;;;;4.25;2.50;;;18.90;46.60;;;;;;5137170;27;20034;-43
2021/05/12 11:13:26;;;;;;;7.68;2.97;;;19.00;46.60;;;;;;5137801;27;20058;-43
2021/05/12 11:15:54;;;;;;;5.03;2.20;;;19.10;46.50;;;;;;5137944;27;20038;-43
2021/05/12 11:18:37;;;;;;;12.10;6.03;;;19.10;46.00;;;;;;5138920;27;20039;-43
2021/05/12 11:21:42;;;;;;;2.95;2.30;;;19.30;45.80;;;;;;5138683;27;20038;-44
2021/05/12 11:24:19;;;;;;;3.58;2.00;;;19.40;45.80;;;;;;5138801;27;20031;-46
2021/05/12 11:27:02;;;;;;;3.25;2.20;;;19.60;46.20;;;;;;5137971;27;20434;-42
2021/05/12 11:32:01;;;;;;;5.90;2.78;;;19.80;45.30;;;;;;5138012;27;20042;-42
2021/05/12 11:34:28;;;;;;;5.78;2.33;;;19.90;45.00;;;;;;5137100;27;20372;-45
2021/05/12 11:37:03;;;;;;;2.50;2.30;;;20.00;44.70;;;;;;5137469;27;20051;-45
2021/05/12 11:39:29;;;;;;;7.90;2.72;;;20.20;44.60;;;;;;5137646;27;20361;-42
2021/05/12 11:41:55;;;;;;;2.45;2.25;;;20.30;44.30;;;;;;5135361;27;20062;-44
2021/05/12 11:44:20;;;;;;;5.03;2.33;;;20.40;44.20;;;;;;5136270;27;20291;-45
2021/05/12 11:46:46;;;;;;;2.67;2.10;;;20.60;44.50;;;;;;5137473;27;20031;-42
2021/05/12 11:49:13;;;;;;;5.90;2.60;;;20.80;44.20;;;;;;5137827;27;20026;-44
2021/05/12 11:51:49;;;;;;;8.43;2.72;;;20.90;43.60;;;;;;5137737;27;20057;-43
2021/05/12 11:54:18;;;;;;;10.85;2.50;;;20.90;43.00;;;;;;5137749;27;20027;-42
2021/05/12 11:56:58;;;;;;;5.53;2.90;;;21.00;43.00;;;;;;5137397;27;20031;-41
2021/05/12 11:59:31;;;;;;;5.25;3.40;;;21.00;42.60;;;;;;5137625;27;20257;-44
2021/05/12 12:02:12;;;;;;;4.95;3.00;;;21.00;42.50;;;;;;5136452;27;20039;-43
2021/05/12 12:07:07;;;;;;;2.80;2.10;;;21.00;42.60;;;;;;5137175;27;20097;-43
2021/05/12 12:09:33;;;;;;;6.18;2.63;;;21.10;42.50;;;;;;5137401;27;20023;-43
2021/05/12 12:11:59;;;;;;;4.88;2.35;;;21.20;42.10;;;;;;5136786;27;20426;-43
2021/05/12 12:14:35;;;;;;;4.70;2.60;;;21.30;42.10;;;;;;5137517;27;20023;-43
2021/05/12 12:17:08;;;;;;;5.13;2.20;;;21.50;41.90;;;;;;5136898;27;20427;-45
2021/05/12 12:19:34;;;;;;;2.20;2.00;;;21.60;40.90;;;;;;5137877;27;20035;-44
2021/05/12 12:21:59;;;;;;;2.58;2.38;;;21.70;40.60;;;;;;5136568;27;20057;-43
2021/05/12 12:24:27;;;;;;;2.67;2.35;;;21.60;40.40;;;;;;5137419;27;20031;-42
2021/05/12 12:26:55;;;;;;;2.40;2.20;;;21.60;40.20;;;;;;5136338;27;20039;-42
2021/05/12 12:29:26;;;;;;;4.43;2.50;;;21.50;40.60;;;;;;5136939;27;20310;-41
2021/05/12 12:32:02;;;;;;;2.25;1.77;;;21.50;40.60;;;;;;5135852;27;20031;-42
2021/05/12 12:34:32;;;;;;;3.63;2.10;;;21.70;41.00;;;;;;5136819;27;20422;-41
2021/05/12 12:37:04;;;;;;;2.27;2.07;;;21.80;40.70;;;;;;5136392;27;20051;-41
2021/05/12 12:39:57;;;;;;;5.90;1.75;;;21.90;40.20;;;;;;5137323;27;20039;-43
2021/05/12 12:42:37;;;;;;;1.85;1.75;;;21.90;39.80;;;;;;5137191;27;20285;-42
2021/05/12 12:45:02;;;;;;;;;;;21.80;39.80;;;;;;5137171;27;20583;-43
2021/05/12 12:47:28;;;;;;;5.22;1.67;;;21.70;40.40;;;;;;5136966;27;20040;-43
2021/05/12 12:50:00;;;;;;;4.15;2.35;;;21.60;40.20;;;;;;5136797;27;20288;-42
2021/05/12 12:52:39;;;;;;;2.22;1.90;;;21.50;40.00;;;;;;5136874;27;20027;-41
2021/05/12 12:55:14;;;;;;;1.63;1.48;;;21.30;39.90;;;;;;5136902;27;20031;-42